Time;durP1;ratioP1;P1;durP2;ratioP2;P2;SDS_P1;SDS_P2;PMS_P1;PMS_P2;Temp;Humidity;BMP_temperature;BMP_pressure;BME280_temperature;BME280_humidity;BME280_pressure;Samples;Min_cycle;Max_cycle;Signal;HPM_P1;HPM_P2
2023/04/22 00:00:18;;;;;;;9.10;3.67;;;;;;;11.58;89.61;101560.25;5025068;28;20210;-71
2023/04/22 00:02:44;;;;;;;5.10;3.50;;;;;;;11.57;90.33;101563.66;5026550;28;20276;-70
2023/04/22 00:05:12;;;;;;;5.87;4.20;;;;;;;11.49;93.16;101570.28;5029528;28;20195;-72
2023/04/22 00:07:39;;;;;;;7.73;3.87;;;;;;;11.48;92.84;101564.25;5023569;28;20305;-70
2023/04/22 00:10:06;;;;;;;5.67;3.63;;;;;;;11.52;91.67;101558.38;5027320;28;20198;-74
2023/04/22 00:12:33;;;;;;;9.23;3.83;;;;;;;11.48;92.32;101550.59;5022915;28;20206;-72
2023/04/22 00:14:59;;;;;;;7.23;3.67;;;;;;;11.49;92.51;101557.44;5023335;28;20218;-72
2023/04/22 00:17:24;;;;;;;6.33;3.90;;;;;;;11.46;93.36;101558.22;5027679;28;20186;-70
2023/04/22 00:19:50;;;;;;;5.40;3.67;;;;;;;11.40;94.90;101559.75;5027560;28;20675;-71
2023/04/22 00:22:15;;;;;;;5.47;4.00;;;;;;;11.41;94.70;101556.34;5020825;28;20261;-71
2023/04/22 00:24:41;;;;;;;7.53;3.67;;;;;;;11.33;96.69;101558.72;5013875;28;20225;-70
2023/04/22 00:27:06;;;;;;;6.17;3.93;;;;;;;11.37;96.16;101547.72;5019875;28;20199;-71
2023/04/22 00:29:32;;;;;;;7.30;3.67;;;;;;;11.30;96.58;101545.81;5026610;28;20310;-71
2023/04/22 00:31:57;;;;;;;6.67;4.17;;;;;;;11.28;96.56;101552.59;5005741;28;20190;-72
2023/04/22 00:34:23;;;;;;;7.70;3.80;;;;;;;11.22;98.15;101542.19;5009981;28;20255;-71
2023/04/22 00:36:50;;;;;;;8.13;3.73;;;;;;;11.20;99.16;101548.94;5010739;28;20679;-71
2023/04/22 00:39:15;;;;;;;4.70;3.93;;;;;;;11.23;98.17;101537.91;5008126;28;20712;-72
2023/04/22 00:41:42;;;;;;;7.77;4.03;;;;;;;11.20;98.88;101535.28;5000260;28;20224;-72
2023/04/22 00:44:11;;;;;;;6.53;3.73;;;;;;;11.19;98.78;101536.06;5012354;28;20233;-72
2023/04/22 00:46:40;;;;;;;5.30;3.77;;;;;;;11.16;100.00;101536.88;5025565;28;20863;-72
2023/04/22 00:49:06;;;;;;;5.63;4.03;;;;;;;11.17;98.81;101520.69;5022007;28;20680;-71
2023/04/22 00:51:32;;;;;;;6.13;3.70;;;;;;;11.20;98.94;101520.75;5023638;28;20194;-71
2023/04/22 00:53:58;;;;;;;6.83;3.80;;;;;;;11.14;99.67;101527.38;5009119;28;20191;-72
2023/04/22 00:56:27;;;;;;;6.10;3.50;;;;;;;11.13;100.00;101533.34;5021434;28;20252;-71
2023/04/22 00:58:54;;;;;;;6.57;3.90;;;;;;;11.13;100.00;101523.09;5018431;28;20328;-71
2023/04/22 01:01:20;;;;;;;5.07;3.57;;;;;;;11.15;99.89;101519.75;5018763;28;20202;-71
2023/04/22 01:03:48;;;;;;;6.53;3.83;;;;;;;11.16;99.96;101523.19;5020916;28;20676;-70
2023/04/22 01:06:15;;;;;;;5.30;3.87;;;;;;;11.12;100.00;101517.13;5007616;28;20206;-70
2023/04/22 01:08:41;;;;;;;7.90;4.20;;;;;;;11.07;100.00;101526.34;5022267;28;20217;-71
2023/04/22 01:11:06;;;;;;;6.17;4.37;;;;;;;11.09;100.00;101524.72;5019589;28;20198;-73
2023/04/22 01:13:32;;;;;;;5.27;4.40;;;;;;;11.01;100.00;101521.06;5009976;28;20194;-73
2023/04/22 01:16:00;;;;;;;7.00;4.27;;;;;;;11.01;100.00;101531.31;5010637;28;20289;-73
2023/04/22 01:18:25;;;;;;;7.10;3.90;;;;;;;10.96;100.00;101527.75;5026866;28;20210;-72
2023/04/22 01:20:51;;;;;;;8.70;4.40;;;;;;;10.95;100.00;101526.03;5021252;28;20257;-73
2023/04/22 01:23:21;;;;;;;6.83;4.20;;;;;;;10.98;100.00;101525.25;5019757;28;20217;-74
2023/04/22 01:25:47;;;;;;;6.83;4.10;;;;;;;10.90;100.00;101521.59;5004203;28;20198;-72
2023/04/22 01:28:14;;;;;;;5.73;4.30;;;;;;;10.89;100.00;101522.41;5011811;28;20242;-71
2023/04/22 01:30:42;;;;;;;6.07;4.40;;;;;;;10.85;100.00;101529.16;5011572;28;20560;-71
2023/04/22 01:33:08;;;;;;;6.60;4.50;;;;;;;10.81;100.00;101514.50;5009572;28;20190;-72
2023/04/22 01:35:38;;;;;;;5.63;4.30;;;;;;;10.76;100.00;101508.38;5009581;28;20240;-71
2023/04/22 01:38:08;;;;;;;5.70;3.97;;;;;;;10.74;100.00;101504.03;5021065;28;20313;-71
2023/04/22 01:40:33;;;;;;;6.67;4.53;;;;;;;10.69;100.00;101498.78;5025673;28;20222;-71
2023/04/22 01:42:59;;;;;;;6.67;4.50;;;;;;;10.68;100.00;101502.16;5010091;28;20253;-71
2023/04/22 01:45:28;;;;;;;6.97;4.43;;;;;;;10.71;100.00;101501.38;5027476;28;20722;-71
2023/04/22 01:47:54;;;;;;;5.67;4.37;;;;;;;10.66;100.00;101500.38;5010708;28;20215;-74
2023/04/22 01:50:21;;;;;;;7.10;4.23;;;;;;;10.64;100.00;101494.38;5027179;28;20190;-71
2023/04/22 01:52:47;;;;;;;5.30;4.20;;;;;;;10.58;100.00;101492.47;5011740;28;20213;-71
2023/04/22 01:55:14;;;;;;;8.13;5.10;;;;;;;10.60;100.00;101487.41;5008797;28;20198;-72
2023/04/22 01:57:41;;;;;;;7.00;4.60;;;;;;;10.65;100.00;101485.84;5010485;28;20211;-71
2023/04/22 02:00:08;;;;;;;6.33;4.57;;;;;;;10.61;100.00;101476.34;5011389;28;20205;-71
2023/04/22 02:02:43;;;;;;;5.20;4.23;;;;;;;10.58;100.00;101476.22;5025545;28;20202;-71
2023/04/22 02:05:09;;;;;;;6.67;4.50;;;;;;;10.60;100.00;101482.28;5023096;28;20225;-71
2023/04/22 02:07:35;;;;;;;5.97;4.70;;;;;;;10.58;100.00;101478.78;5008412;28;20212;-72
2023/04/22 02:10:03;;;;;;;5.77;4.57;;;;;;;10.57;100.00;101472.81;5025737;28;20282;-72
2023/04/22 02:12:30;;;;;;;6.20;4.83;;;;;;;10.53;100.00;101475.22;5024822;28;20198;-72
2023/04/22 02:14:55;;;;;;;7.67;5.03;;;;;;;10.56;100.00;101473.63;5020964;28;20609;-71
2023/04/22 02:17:21;;;;;;;6.20;5.07;;;;;;;10.61;100.00;101463.53;5026626;28;20191;-70
2023/04/22 02:19:46;;;;;;;6.50;4.50;;;;;;;10.63;100.00;101462.75;5012334;28;20281;-71
2023/04/22 02:22:12;;;;;;;8.07;5.13;;;;;;;10.64;100.00;101461.06;5008830;28;20672;-71
2023/04/22 02:24:37;;;;;;;6.07;4.93;;;;;;;10.58;100.00;101469.44;5011455;28;20225;-72
2023/04/22 02:27:03;;;;;;;5.63;5.00;;;;;;;10.54;100.00;101461.59;5028910;28;20194;-71
2023/04/22 02:29:30;;;;;;;8.97;4.60;;;;;;;10.57;100.00;101457.47;5027748;28;20722;-72
2023/04/22 02:31:58;;;;;;;6.13;4.87;;;;;;;10.50;100.00;101458.09;5011804;28;20191;-72
2023/04/22 02:34:24;;;;;;;7.43;4.80;;;;;;;10.57;100.00;101454.91;5009391;28;20218;-72
2023/04/22 02:36:49;;;;;;;7.13;4.63;;;;;;;10.52;100.00;101455.56;5024846;28;20194;-72
2023/04/22 02:39:15;;;;;;;7.87;5.13;;;;;;;10.54;100.00;101459.03;5019397;28;20592;-72
2023/04/22 02:41:40;;;;;;;7.83;5.53;;;;;;;10.53;100.00;101459.88;5020161;28;20190;-72
2023/04/22 02:44:06;;;;;;;8.97;5.00;;;;;;;10.59;100.00;101444.66;5010928;28;20711;-71
2023/04/22 02:46:32;;;;;;;10.67;5.77;;;;;;;10.59;100.00;101443.00;5029918;28;20190;-74
2023/04/22 02:48:57;;;;;;;9.70;5.50;;;;;;;10.61;100.00;101448.16;5026738;28;20627;-71
2023/04/22 02:51:23;;;;;;;8.03;5.33;;;;;;;10.58;100.00;101437.81;5021125;28;20195;-71
2023/04/22 02:53:48;;;;;;;7.07;4.97;;;;;;;10.59;100.00;101435.31;5010238;28;20257;-73
2023/04/22 02:56:14;;;;;;;6.53;5.10;;;;;;;10.57;100.00;101438.66;5007031;28;20207;-70
2023/04/22 02:58:39;;;;;;;7.80;5.30;;;;;;;10.54;100.00;101430.88;5027009;28;20229;-71
2023/04/22 03:01:05;;;;;;;7.00;5.67;;;;;;;10.55;100.00;101424.94;5009221;28;20219;-73
2023/04/22 03:03:30;;;;;;;8.53;5.23;;;;;;;10.56;100.00;101432.66;5010827;28;20297;-70
2023/04/22 03:05:56;;;;;;;6.43;5.47;;;;;;;10.58;100.00;101417.34;5011969;28;20244;-72
2023/04/22 03:08:22;;;;;;;7.53;5.10;;;;;;;10.50;100.00;101435.03;5011414;28;20225;-72
2023/04/22 03:10:48;;;;;;;8.60;5.83;;;;;;;10.53;100.00;101432.59;5016589;28;20194;-72
2023/04/22 03:13:13;;;;;;;8.27;5.83;;;;;;;10.52;100.00;101427.41;5010043;28;20238;-73
2023/04/22 03:15:40;;;;;;;8.40;5.87;;;;;;;10.51;100.00;101426.53;5013194;28;20198;-72
2023/04/22 03:18:06;;;;;;;10.50;6.57;;;;;;;10.49;100.00;101424.75;5012063;28;20214;-74
2023/04/22 03:20:31;;;;;;;7.23;5.77;;;;;;;10.45;100.00;101428.03;5018210;28;20202;-71
2023/04/22 03:22:57;;;;;;;8.47;6.13;;;;;;;10.50;100.00;101412.00;5005416;28;20695;-71
2023/04/22 03:25:24;;;;;;;7.07;5.33;;;;;;;10.48;100.00;101407.66;5008459;28;20638;-72
2023/04/22 03:27:53;;;;;;;7.83;5.83;;;;;;;10.45;100.00;101417.81;5020352;28;20215;-70
2023/04/22 03:30:18;;;;;;;6.53;5.73;;;;;;;10.43;100.00;101409.22;5011626;28;20204;-73
2023/04/22 03:32:45;;;;;;;7.40;5.63;;;;;;;10.41;100.00;101411.72;5007615;28;20287;-71
2023/04/22 03:35:43;;;;;;;7.97;6.00;;;;;;;10.43;100.00;101417.78;5010358;28;20198;-73
2023/04/22 03:38:10;;;;;;;8.80;6.27;;;;;;;10.44;100.00;101416.94;5010113;28;20789;-71
2023/04/22 03:40:36;;;;;;;7.80;5.80;;;;;;;10.42;100.00;101421.13;5021436;28;20186;-72
2023/04/22 03:43:09;;;;;;;8.53;6.30;;;;;;;10.37;100.00;101420.13;5020869;28;20210;-72
2023/04/22 03:45:34;;;;;;;8.70;5.40;;;;;;;10.40;100.00;101417.69;5024902;28;20248;-71
2023/04/22 03:48:28;;;;;;;10.80;5.90;;;;;;;10.39;100.00;101408.28;5024235;28;20214;-70
2023/04/22 03:50:54;;;;;;;9.57;6.70;;;;;;;10.33;100.00;101405.50;5010160;28;20194;-72
2023/04/22 03:53:20;;;;;;;7.80;5.93;;;;;;;10.29;100.00;101416.50;5020970;28;20245;-71
2023/04/22 03:55:46;;;;;;;9.03;5.93;;;;;;;10.31;100.00;101399.50;5018028;28;20238;-70
2023/04/22 03:58:13;;;;;;;7.77;6.30;;;;;;;10.34;100.00;101394.47;5009854;28;20202;-71
2023/04/22 04:00:38;;;;;;;6.97;5.93;;;;;;;10.30;100.00;101390.09;5011559;28;20205;-72
2023/04/22 04:03:08;;;;;;;8.83;6.53;;;;;;;10.30;100.00;101390.09;5007838;28;20215;-71
2023/04/22 04:05:34;;;;;;;6.73;5.57;;;;;;;10.29;100.00;101384.91;5000897;28;20244;-72
2023/04/22 04:08:00;;;;;;;7.40;6.20;;;;;;;10.26;100.00;101387.38;5005979;28;20739;-72
2023/04/22 04:10:25;;;;;;;7.53;6.27;;;;;;;10.28;100.00;101383.19;5019643;28;20321;-70
2023/04/22 04:12:53;;;;;;;10.00;6.77;;;;;;;10.29;100.00;101380.69;5005006;28;20644;-71
2023/04/22 04:15:20;;;;;;;9.23;6.10;;;;;;;10.31;100.00;101383.25;5026026;28;20560;-72
2023/04/22 04:17:47;;;;;;;9.20;6.93;;;;;;;10.29;100.00;101396.03;5010758;28;20272;-71
2023/04/22 04:20:14;;;;;;;10.03;6.70;;;;;;;10.24;100.00;101395.03;5009786;28;20202;-71
2023/04/22 04:22:41;;;;;;;9.47;6.43;;;;;;;10.27;100.00;101386.59;5005061;28;20202;-70
2023/04/22 04:25:08;;;;;;;10.13;6.30;;;;;;;10.30;100.00;101384.97;5021802;28;20250;-72
2023/04/22 04:27:38;;;;;;;11.50;6.17;;;;;;;10.30;100.00;101379.84;5023078;28;20214;-71
2023/04/22 04:30:05;;;;;;;8.63;6.80;;;;;;;10.30;100.00;101389.22;5025060;28;20756;-71
2023/04/22 04:32:44;;;;;;;7.70;6.80;;;;;;;10.30;100.00;101382.41;5021728;28;20218;-71
2023/04/22 04:35:14;;;;;;;11.23;6.53;;;;;;;10.26;100.00;101387.38;5019370;28;20734;-72
2023/04/22 04:37:45;;;;;;;7.23;6.37;;;;;;;10.30;100.00;101379.84;5006537;28;20224;-70
2023/04/22 04:40:13;;;;;;;9.03;6.67;;;;;;;10.30;100.00;101378.97;5006774;28;20187;-70
2023/04/22 04:42:56;;;;;;;9.80;6.63;;;;;;;10.33;100.00;101371.38;5021820;28;20214;-72
2023/04/22 04:45:26;;;;;;;11.50;7.27;;;;;;;10.34;100.00;101362.88;5018106;28;20541;-72
2023/04/22 04:47:53;;;;;;;11.43;7.27;;;;;;;10.36;100.00;101351.84;5010245;28;20214;-70
2023/04/22 04:50:26;;;;;;;10.63;6.27;;;;;;;10.43;100.00;101355.47;5010285;28;20193;-71
2023/04/22 04:52:54;;;;;;;10.60;6.30;;;;;;;10.44;100.00;101349.50;5014449;28;20245;-72
2023/04/22 04:55:25;;;;;;;8.90;7.20;;;;;;;10.52;100.00;101354.03;5011895;28;20187;-71
2023/04/22 04:57:51;;;;;;;7.30;6.43;;;;;;;10.54;100.00;101348.94;4988461;28;20210;-70
2023/04/22 05:00:18;;;;;;;8.33;6.53;;;;;;;10.56;100.00;101345.59;5015497;28;20191;-71
2023/04/22 05:02:44;;;;;;;9.50;7.60;;;;;;;10.61;100.00;101346.59;5003116;28;20276;-70
2023/04/22 05:05:09;;;;;;;11.17;8.17;;;;;;;10.66;100.00;101344.16;4990638;28;20997;-71
2023/04/22 05:07:36;;;;;;;8.87;6.87;;;;;;;10.72;100.00;101355.44;5003524;28;20276;-74
2023/04/22 05:10:03;;;;;;;11.07;7.03;;;;;;;10.81;100.00;101350.56;5009250;28;20218;-70
2023/04/22 05:12:28;;;;;;;7.70;6.73;;;;;;;10.87;100.00;101345.59;5028749;28;20601;-70
2023/04/22 05:14:54;;;;;;;11.93;7.53;;;;;;;10.95;100.00;101346.66;5027309;28;20284;-70
2023/04/22 05:17:20;;;;;;;8.87;7.53;;;;;;;11.03;100.00;101334.91;5007712;28;20194;-73
2023/04/22 05:19:45;;;;;;;10.13;7.33;;;;;;;11.13;100.00;101333.44;5014879;28;20187;-73
2023/04/22 05:22:11;;;;;;;12.83;7.90;;;;;;;11.19;100.00;101331.91;4992312;28;20230;-71
2023/04/22 05:24:36;;;;;;;10.87;7.27;;;;;;;11.28;100.00;101320.97;5011672;28;20209;-71
2023/04/22 05:27:03;;;;;;;9.20;7.23;;;;;;;11.37;100.00;101306.69;5021326;28;20202;-70
2023/04/22 05:29:30;;;;;;;8.33;7.10;;;;;;;11.46;100.00;101306.03;5028669;28;20210;-71
2023/04/22 05:31:56;;;;;;;10.80;7.07;;;;;;;11.52;100.00;101280.56;5026819;28;20194;-71
2023/04/22 05:34:22;;;;;;;12.37;7.43;;;;;;;11.59;100.00;101278.19;5012763;28;20214;-72
2023/04/22 05:36:48;;;;;;;8.57;6.93;;;;;;;11.71;100.00;101260.47;5014417;28;20277;-71
2023/04/22 05:39:13;;;;;;;8.07;7.00;;;;;;;11.86;100.00;101254.81;5028937;28;20210;-71
2023/04/22 05:41:39;;;;;;;9.17;7.03;;;;;;;11.93;100.00;101262.66;5010833;28;20226;-71
2023/04/22 05:44:07;;;;;;;11.13;7.27;;;;;;;11.99;100.00;101270.47;5015375;28;20238;-70
2023/04/22 05:46:33;;;;;;;10.27;7.60;;;;;;;12.06;100.00;101267.22;5012370;28;20218;-72
2023/04/22 05:48:58;;;;;;;11.10;7.47;;;;;;;12.14;100.00;101267.38;5014057;28;20285;-70
2023/04/22 05:51:44;;;;;;;9.67;7.60;;;;;;;12.24;100.00;101259.00;5025167;28;20875;-69
2023/04/22 05:54:12;;;;;;;11.87;7.87;;;;;;;12.35;100.00;101254.97;5020916;28;20223;-73
2023/04/22 05:56:38;;;;;;;10.27;7.87;;;;;;;12.42;100.00;101255.09;5010809;28;20799;-72
2023/04/22 05:59:03;;;;;;;10.53;8.07;;;;;;;12.52;100.00;101250.97;5020174;28;20298;-73
2023/04/22 06:01:29;;;;;;;8.30;7.37;;;;;;;12.60;100.00;101245.16;4995450;28;20708;-73
2023/04/22 06:03:58;;;;;;;10.77;8.43;;;;;;;12.72;100.00;101247.91;5012062;28;20222;-71
2023/04/22 06:06:25;;;;;;;11.83;7.80;;;;;;;12.85;100.00;101239.56;5011921;28;20281;-71
2023/04/22 06:08:50;;;;;;;9.33;7.53;;;;;;;12.93;100.00;101214.00;5014345;28;20210;-72
2023/04/22 06:11:15;;;;;;;9.10;7.27;;;;;;;12.93;100.00;101198.56;5024310;28;20704;-71
2023/04/22 06:13:41;;;;;;;8.10;7.27;;;;;;;12.95;100.00;101212.31;5009413;28;20190;-71
2023/04/22 06:16:07;;;;;;;10.40;7.50;;;;;;;12.93;100.00;101202.84;5007088;28;20217;-72
2023/04/22 06:18:35;;;;;;;11.37;7.50;;;;;;;12.94;100.00;101206.31;5008938;28;20222;-71
2023/04/22 06:21:01;;;;;;;10.30;7.60;;;;;;;13.00;100.00;101199.56;5010885;28;20205;-70
2023/04/22 06:23:26;;;;;;;10.10;8.00;;;;;;;12.99;100.00;101201.28;5011595;28;20575;-71
2023/04/22 06:25:52;;;;;;;10.37;7.43;;;;;;;13.19;100.00;101202.44;5010494;28;20197;-71
2023/04/22 06:28:17;;;;;;;9.07;8.00;;;;;;;13.39;100.00;101197.59;5026340;28;20217;-75
2023/04/22 06:30:44;;;;;;;14.47;8.47;;;;;;;13.53;100.00;101188.34;5009259;28;20198;-73
2023/04/22 06:33:11;;;;;;;10.40;7.50;;;;;;;13.58;98.89;101168.66;5012641;28;20190;-72
2023/04/22 06:35:37;;;;;;;12.13;7.70;;;;;;;13.48;98.22;101166.84;5013064;28;20194;-71
2023/04/22 06:38:03;;;;;;;10.87;7.43;;;;;;;13.60;100.00;101175.56;5024099;28;20726;-71
2023/04/22 06:40:36;;;;;;;8.20;7.40;;;;;;;13.71;97.13;101152.53;5015272;28;20190;-72
2023/04/22 06:43:11;;;;;;;9.73;8.10;;;;;;;13.72;97.46;101151.69;5027009;28;20752;-73
2023/04/22 06:46:05;;;;;;;9.63;7.70;;;;;;;13.86;96.72;101144.97;5012712;28;20230;-72
2023/04/22 06:48:38;;;;;;;9.03;7.87;;;;;;;14.02;96.56;101139.13;5009203;28;20218;-72
2023/04/22 06:51:41;;;;;;;10.97;8.43;;;;;;;14.16;97.27;101143.56;5024550;28;20687;-71
2023/04/22 06:54:07;;;;;;;10.77;7.80;;;;;;;14.22;94.34;101120.47;5020517;28;20234;-71
2023/04/22 06:56:32;;;;;;;10.50;7.90;;;;;;;14.29;96.33;101123.97;5010665;28;20222;-71
2023/04/22 06:58:58;;;;;;;9.20;7.90;;;;;;;14.44;97.07;101131.81;5014460;28;20803;-71
2023/04/22 07:01:23;;;;;;;10.43;8.33;;;;;;;14.53;96.14;101121.59;5009101;28;20191;-71
2023/04/22 07:03:49;;;;;;;9.77;7.73;;;;;;;14.57;92.66;101106.19;5007372;28;20214;-72
2023/04/22 07:06:15;;;;;;;9.57;8.57;;;;;;;14.56;95.77;101106.16;5026478;28;20197;-73
2023/04/22 07:08:41;;;;;;;10.50;8.20;;;;;;;14.88;93.35;101108.09;5010014;28;20720;-71
2023/04/22 07:11:06;;;;;;;11.53;8.70;;;;;;;14.86;90.33;101084.03;5019075;28;20277;-71
2023/04/22 07:13:48;;;;;;;10.10;8.60;;;;;;;15.19;88.83;101081.63;5023030;28;20186;-71
2023/04/22 07:16:13;;;;;;;11.67;9.40;;;;;;;15.13;92.44;101080.72;5019473;28;20311;-73
2023/04/22 07:18:39;;;;;;;11.70;9.03;;;;;;;15.32;90.45;101085.09;5003248;28;20622;-71
2023/04/22 07:21:04;;;;;;;12.17;8.47;;;;;;;15.44;86.81;101060.25;5024739;28;20207;-72
2023/04/22 07:23:30;;;;;;;11.37;8.03;;;;;;;15.68;86.38;101065.47;5022751;28;20214;-72
2023/04/22 07:25:55;;;;;;;9.20;7.90;;;;;;;15.94;85.45;101047.44;5022194;28;20216;-72
2023/04/22 07:28:21;;;;;;;9.10;7.90;;;;;;;16.21;86.67;101043.13;5015291;28;20939;-71
2023/04/22 07:30:47;;;;;;;10.27;8.03;;;;;;;16.27;81.62;101024.19;5012340;28;20218;-71
2023/04/22 07:33:13;;;;;;;10.40;7.63;;;;;;;16.36;82.31;101017.31;5021751;28;20218;-70
2023/04/22 07:35:38;;;;;;;9.27;8.33;;;;;;;16.32;82.19;101025.03;5025466;28;20648;-72
2023/04/22 07:38:04;;;;;;;11.30;8.10;;;;;;;16.50;81.48;101017.28;5018873;28;20279;-72
2023/04/22 07:40:29;;;;;;;12.70;7.60;;;;;;;16.61;82.73;101016.41;5004567;28;20241;-75
2023/04/22 07:42:54;;;;;;;10.83;8.07;;;;;;;16.76;79.90;100998.25;5002920;28;20893;-71
2023/04/22 07:45:20;;;;;;;8.40;7.57;;;;;;;16.93;77.43;100980.09;5015639;28;20191;-71
2023/04/22 07:47:45;;;;;;;9.50;8.30;;;;;;;16.94;76.73;100972.31;5019152;28;20217;-70
2023/04/22 07:50:11;;;;;;;9.30;7.57;;;;;;;17.11;76.91;100955.00;5019829;28;20217;-71
2023/04/22 07:52:36;;;;;;;9.03;7.27;;;;;;;17.70;76.73;100957.22;5022354;28;20329;-70
2023/04/22 07:55:02;;;;;;;10.93;8.23;;;;;;;17.58;70.06;100919.31;5024434;28;20276;-70
2023/04/22 07:57:27;;;;;;;9.47;6.93;;;;;;;17.84;68.19;100895.78;5015768;28;20644;-71
2023/04/22 07:59:53;;;;;;;9.07;7.77;;;;;;;18.30;65.79;100884.06;5018018;28;20187;-72
2023/04/22 08:02:18;;;;;;;9.17;7.07;;;;;;;18.46;63.52;100873.53;5016060;28;20202;-70
2023/04/22 08:04:43;;;;;;;8.17;7.07;;;;;;;18.74;63.83;100869.72;5023275;28;20226;-70
2023/04/22 08:07:09;;;;;;;10.67;6.77;;;;;;;18.77;60.54;100848.06;5018043;28;20209;-72
2023/04/22 08:09:35;;;;;;;9.03;7.00;;;;;;;18.40;64.82;100877.94;5021662;28;20242;-70
2023/04/22 08:12:01;;;;;;;8.57;7.07;;;;;;;18.06;66.23;100885.19;5021354;28;20249;-70
2023/04/22 08:14:27;;;;;;;8.70;6.87;;;;;;;18.26;67.73;100901.41;5020363;28;20194;-71
2023/04/22 08:16:52;;;;;;;11.03;7.30;;;;;;;18.18;66.01;100886.78;5023526;28;20183;-69
2023/04/22 08:19:19;;;;;;;7.53;6.83;;;;;;;18.13;67.65;100892.03;5018846;28;20736;-71
2023/04/22 08:21:45;;;;;;;7.63;6.90;;;;;;;18.42;66.28;100876.22;5020513;28;20198;-70
2023/04/22 08:24:11;;;;;;;10.97;7.50;;;;;;;18.48;65.37;100866.63;5007161;28;20210;-70
2023/04/22 08:26:38;;;;;;;10.33;6.83;;;;;;;18.84;65.54;100860.91;5020845;28;20660;-70
2023/04/22 08:29:04;;;;;;;8.27;6.50;;;;;;;18.93;62.40;100836.59;5024060;28;20305;-74
2023/04/22 08:31:30;;;;;;;7.20;6.07;;;;;;;19.39;60.57;100825.47;5005419;28;20270;-69
2023/04/22 08:33:55;;;;;;;7.60;6.40;;;;;;;19.48;60.69;100835.72;5021866;28;20559;-70
2023/04/22 08:36:26;;;;;;;9.03;6.80;;;;;;;19.09;57.67;100812.97;5019656;28;20186;-71
2023/04/22 08:38:51;;;;;;;10.13;6.97;;;;;;;19.67;58.00;100821.53;5018169;28;20691;-69
2023/04/22 08:41:18;;;;;;;10.53;6.57;;;;;;;19.64;55.33;100808.59;5017337;28;20320;-71
2023/04/22 08:43:44;;;;;;;9.27;6.20;;;;;;;20.08;57.03;100824.22;5020917;28;20261;-72
2023/04/22 08:46:10;;;;;;;9.03;6.33;;;;;;;19.87;57.08;100826.34;5015563;28;20190;-70
2023/04/22 08:48:36;;;;;;;13.40;6.30;;;;;;;20.00;55.89;100825.25;5027426;28;20217;-74
2023/04/22 08:51:03;;;;;;;8.43;6.97;;;;;;;19.94;54.93;100823.63;5008510;28;20205;-69
2023/04/22 08:53:29;;;;;;;10.13;6.90;;;;;;;20.15;52.47;100786.84;5021694;28;20201;-69
2023/04/22 08:55:56;;;;;;;8.03;6.53;;;;;;;20.40;52.50;100802.78;5014974;28;20205;-69
2023/04/22 08:58:22;;;;;;;9.07;6.70;;;;;;;20.86;52.20;100806.09;5013742;28;20617;-69
2023/04/22 09:00:49;;;;;;;8.37;6.40;;;;;;;20.97;51.82;100798.91;5014359;28;20202;-70
2023/04/22 09:03:15;;;;;;;8.60;6.10;;;;;;;21.10;50.67;100788.16;5019591;28;20246;-69
2023/04/22 09:05:42;;;;;;;11.57;7.23;;;;;;;20.64;50.45;100797.06;5022670;28;20567;-69
2023/04/22 09:08:10;;;;;;;11.60;6.83;;;;;;;20.86;53.11;100839.94;5013506;28;20294;-69
2023/04/22 09:10:37;;;;;;;7.97;5.90;;;;;;;21.12;50.40;100808.97;5018242;28;20210;-71
2023/04/22 09:13:06;;;;;;;7.13;6.43;;;;;;;21.15;51.18;100811.50;5017239;28;20202;-69
2023/04/22 09:15:32;;;;;;;9.60;6.80;;;;;;;21.21;50.34;100803.53;5014892;28;20197;-71
2023/04/22 09:17:58;;;;;;;7.93;6.77;;;;;;;21.16;51.12;100821.88;5019906;28;20983;-71
2023/04/22 09:20:28;;;;;;;9.87;6.23;;;;;;;21.13;52.78;100852.34;5018386;28;20186;-70
2023/04/22 09:22:55;;;;;;;8.70;6.50;;;;;;;21.49;53.44;100849.72;5017337;28;20706;-71
2023/04/22 09:25:22;;;;;;;9.07;6.97;;;;;;;21.08;49.93;100796.91;5018235;28;20201;-71
2023/04/22 09:27:55;;;;;;;6.50;5.90;;;;;;;21.52;51.62;100817.50;5016808;28;20223;-70
2023/04/22 09:30:29;;;;;;;7.37;6.33;;;;;;;21.80;49.89;100798.53;5017213;28;20321;-70
2023/04/22 09:32:59;;;;;;;6.93;6.03;;;;;;;21.97;48.76;100783.25;5019659;28;20284;-69
2023/04/22 09:35:30;;;;;;;8.23;6.03;;;;;;;21.67;49.04;100796.25;5018124;28;20669;-70
2023/04/22 09:37:57;;;;;;;7.07;5.07;;;;;;;22.17;52.32;100855.75;5007867;28;20218;-69
2023/04/22 09:40:24;;;;;;;9.73;6.80;;;;;;;21.84;50.16;100809.72;5021247;28;20187;-69
2023/04/22 09:42:51;;;;;;;7.50;5.73;;;;;;;22.35;49.77;100811.72;5019384;28;20621;-69
2023/04/22 09:45:32;;;;;;;7.80;5.90;;;;;;;22.33;49.49;100791.78;5022915;28;20660;-70
2023/04/22 09:48:18;;;;;;;9.10;6.00;;;;;;;22.62;47.90;100767.47;5016301;28;20206;-70
2023/04/22 09:50:45;;;;;;;7.00;5.83;;;;;;;22.81;47.76;100766.84;5025268;28;20194;-70
2023/04/22 09:53:16;;;;;;;8.90;5.60;;;;;;;22.88;47.54;100760.50;5021580;28;20192;-70
2023/04/22 09:55:44;;;;;;;8.53;6.23;;;;;;;22.67;48.25;100789.91;5021366;28;20194;-70
2023/04/22 09:58:12;;;;;;;10.13;6.40;;;;;;;22.79;48.03;100778.25;5022787;28;20237;-69
2023/04/22 10:00:50;;;;;;;7.70;5.30;;;;;;;23.25;47.05;100766.25;5019238;28;20202;-70
2023/04/22 10:03:16;;;;;;;9.60;5.93;;;;;;;23.30;46.50;100753.06;5020521;28;20217;-70
2023/04/22 10:05:44;;;;;;;6.93;5.90;;;;;;;23.82;47.17;100760.78;5006407;28;20683;-70
2023/04/22 10:08:11;;;;;;;9.57;5.90;;;;;;;23.88;46.85;100755.31;5014315;28;20254;-71
2023/04/22 10:10:37;;;;;;;6.67;5.57;;;;;;;23.74;45.19;100745.38;5023250;28;20225;-70
2023/04/22 10:13:04;;;;;;;5.97;5.37;;;;;;;23.72;46.57;100777.72;5024563;28;20645;-70
2023/04/22 10:15:51;;;;;;;6.37;5.40;;;;;;;23.75;45.02;100736.59;5019688;28;20583;-70
2023/04/22 10:18:21;;;;;;;6.47;4.67;;;;;;;23.76;45.80;100759.22;5024827;28;20210;-69
2023/04/22 10:20:48;;;;;;;6.80;5.00;;;;;;;24.51;45.53;100758.19;5025532;28;20259;-70
2023/04/22 10:23:19;;;;;;;7.67;5.50;;;;;;;23.99;43.94;100727.88;5019752;28;20759;-70
2023/04/22 10:25:53;;;;;;;8.02;5.10;;;;;;;24.47;44.16;100714.69;5022563;28;20205;-70
2023/04/22 10:28:21;;;;;;;8.63;6.35;;;;;;;24.41;44.25;100726.25;5025153;28;20702;-70
2023/04/22 10:30:47;;;;;;;9.05;5.30;;;;;;;24.38;44.95;100729.00;5017958;28;20194;-69
2023/04/22 10:33:22;;;;;;;8.85;5.85;;;;;;;24.74;44.30;100717.09;5019523;28;20194;-70
2023/04/22 10:36:08;;;;;;;8.18;5.70;;;;;;;25.09;43.97;100713.03;5020896;28;20226;-69
2023/04/22 10:38:59;;;;;;;11.00;5.07;;;;;;;25.06;42.58;100708.78;5011777;28;20217;-70
2023/04/22 10:41:28;;;;;;;10.10;5.60;;;;;;;25.38;42.26;100703.03;4990414;28;20223;-71
2023/04/22 10:43:59;;;;;;;8.18;5.00;;;;;;;24.91;42.84;100716.41;5017542;28;20207;-70
2023/04/22 10:46:31;;;;;;;6.30;5.05;;;;;;;24.95;43.15;100725.88;5006583;28;20207;-70
2023/04/22 10:48:57;;;;;;;5.88;4.78;;;;;;;25.10;43.25;100726.06;5023005;28;20728;-70
2023/04/22 10:51:45;;;;;;;5.43;4.90;;;;;;;25.38;42.61;100707.44;5021505;28;20563;-73
2023/04/22 10:54:26;;;;;;;5.25;4.72;;;;;;;25.49;41.88;100702.56;5026815;28;20194;-70
2023/04/22 10:57:07;;;;;;;6.85;4.20;;;;;;;25.48;40.34;100675.50;5014333;28;20214;-73
2023/04/22 10:59:40;;;;;;;4.97;3.97;;;;;;;25.35;42.51;100718.91;5018862;28;20214;-71
2023/04/22 11:02:07;;;;;;;7.03;4.00;;;;;;;24.96;40.65;100690.88;5024887;28;20202;-71
2023/04/22 11:04:33;;;;;;;6.03;4.10;;;;;;;25.00;41.36;100714.25;5024444;28;20729;-72
2023/04/22 11:07:19;;;;;;;5.75;5.15;;;;;;;25.74;41.75;100703.19;5024012;28;20282;-73
2023/04/22 11:09:49;;;;;;;6.28;4.90;;;;;;;25.55;41.30;100692.66;5006612;28;20223;-74
2023/04/22 11:12:42;;;;;;;6.80;4.38;;;;;;;25.12;41.00;100682.28;5019845;28;20203;-73
2023/04/22 11:15:17;;;;;;;6.38;4.55;;;;;;;26.06;41.53;100698.19;5023970;28;20198;-73
2023/04/22 11:17:44;;;;;;;5.68;4.43;;;;;;;25.35;41.26;100683.94;5024603;28;20214;-74
2023/04/22 11:20:12;;;;;;;7.80;4.95;;;;;;;25.99;41.79;100698.56;5023969;28;20202;-74
2023/04/22 11:22:40;;;;;;;6.22;4.38;;;;;;;25.88;40.98;100674.56;5024820;28;20198;-72